createdAt,value
2022-10-08T10:06:33.329Z,11.40
2022-10-08T10:09:38.205Z,11.60
2022-10-08T10:12:04.841Z,11.40
2022-10-08T10:14:44.548Z,11.10
2022-10-08T10:17:35.549Z,11.20
2022-10-08T10:20:13.460Z,11.30
2022-10-08T10:22:48.375Z,11.40
2022-10-08T10:25:21.886Z,11.40
2022-10-08T10:27:54.670Z,11.40
2022-10-08T10:30:22.710Z,11.30
2022-10-08T10:33:13.300Z,11.20
2022-10-08T10:35:52.086Z,10.90
2022-10-08T10:38:27.733Z,10.80
2022-10-08T10:41:09.416Z,10.70
2022-10-08T10:43:57.589Z,10.70
2022-10-08T10:46:30.411Z,10.60
2022-10-08T10:48:57.056Z,10.60
2022-10-08T10:51:52.054Z,10.50
2022-10-08T10:54:42.989Z,10.40
2022-10-08T10:57:34.011Z,10.40
2022-10-08T11:00:00.569Z,10.50
2022-10-08T11:02:29.274Z,10.30
2022-10-08T11:05:02.114Z,10.30
2022-10-08T11:07:50.836Z,10.50
2022-10-08T11:10:25.321Z,10.80
2022-10-08T11:13:17.132Z,11.00
2022-10-08T11:15:55.611Z,11.10
2022-10-08T11:18:37.544Z,11.20
2022-10-08T11:21:27.396Z,11.30
2022-10-08T11:24:28.649Z,11.30
2022-10-08T11:27:07.324Z,11.50
2022-10-08T11:30:01.722Z,11.20
2022-10-08T11:32:29.815Z,11.60
2022-10-08T11:35:05.605Z,11.60
2022-10-08T11:37:55.665Z,11.70
2022-10-08T11:40:30.937Z,11.90
2022-10-08T11:43:05.495Z,12.00
2022-10-08T11:45:40.314Z,12.30
2022-10-08T11:48:32.732Z,12.10
2022-10-08T11:51:21.291Z,11.80
2022-10-08T11:54:02.917Z,11.30
2022-10-08T11:56:29.921Z,11.00
2022-10-08T11:58:57.594Z,10.90
2022-10-08T12:01:24.233Z,11.00
2022-10-08T12:04:01.143Z,11.30
2022-10-08T12:06:33.461Z,11.60
2022-10-08T12:09:04.833Z,11.80
2022-10-08T12:11:40.569Z,12.20
2022-10-08T12:14:14.284Z,12.30
2022-10-08T12:16:56.414Z,12.20
2022-10-08T12:19:35.170Z,11.60
2022-10-08T12:22:17.573Z,11.30
2022-10-08T12:24:49.716Z,11.50
2022-10-08T12:27:17.029Z,11.40
2022-10-08T12:30:04.300Z,11.60
2022-10-08T12:32:52.502Z,11.50
2022-10-08T12:35:31.803Z,11.60
2022-10-08T12:38:24.168Z,11.30
2022-10-08T12:40:56.736Z,11.20
2022-10-08T12:43:25.259Z,11.40
2022-10-08T12:46:17.654Z,11.30
2022-10-08T12:49:05.751Z,11.50
2022-10-08T12:51:35.461Z,11.90
2022-10-08T12:54:02.334Z,11.70
2022-10-08T12:56:29.318Z,11.90
2022-10-08T12:59:01.684Z,11.70
2022-10-08T13:01:28.377Z,11.40
2022-10-08T13:04:29.940Z,11.10
2022-10-08T13:06:56.548Z,10.90
2022-10-08T13:09:34.066Z,11.10
2022-10-08T13:12:03.830Z,11.20
2022-10-08T13:14:35.281Z,11.10
2022-10-08T13:17:01.916Z,11.10
2022-10-08T13:19:36.412Z,11.40
2022-10-08T13:22:23.627Z,11.30
2022-10-08T13:24:50.291Z,11.30
2022-10-08T13:27:25.052Z,11.30
2022-10-08T13:29:51.775Z,11.30
2022-10-08T13:32:25.679Z,11.60
2022-10-08T13:34:59.402Z,11.60
2022-10-08T13:37:50.549Z,11.70
2022-10-08T13:40:18.263Z,11.30
2022-10-08T13:42:49.613Z,11.00
2022-10-08T13:45:21.442Z,10.80
2022-10-08T13:47:48.277Z,10.70
2022-10-08T13:50:15.258Z,10.70
2022-10-08T13:52:44.362Z,10.90
2022-10-08T13:55:23.210Z,11.00
2022-10-08T13:57:50.253Z,10.80
2022-10-08T14:00:17.675Z,10.70
2022-10-08T14:02:44.274Z,10.90
2022-10-08T14:05:10.877Z,10.90
2022-10-08T14:07:37.469Z,10.80
2022-10-08T14:10:04.672Z,10.60
2022-10-08T14:12:32.594Z,10.70
2022-10-08T14:14:59.802Z,10.70
2022-10-08T14:17:26.434Z,10.70
2022-10-08T14:19:54.217Z,10.60
2022-10-08T14:22:20.844Z,10.60
2022-10-08T14:24:47.511Z,10.80
2022-10-08T14:27:14.096Z,10.90
2022-10-08T14:29:40.699Z,11.00
2022-10-08T14:32:08.425Z,10.90
2022-10-08T14:34:35.487Z,11.20
2022-10-08T14:37:02.284Z,11.10
2022-10-08T14:39:28.910Z,11.20
2022-10-08T14:41:55.531Z,11.10
2022-10-08T14:44:22.584Z,11.20
2022-10-08T14:46:51.728Z,11.30
2022-10-08T14:49:18.772Z,11.20
2022-10-08T14:51:45.993Z,11.20
2022-10-08T14:54:13.606Z,11.30
2022-10-08T14:56:42.554Z,11.40
2022-10-08T14:59:10.107Z,11.30
2022-10-08T15:01:36.867Z,11.20
2022-10-08T15:04:04.271Z,11.10
2022-10-08T15:06:30.915Z,11.30
2022-10-08T15:08:57.523Z,11.30
2022-10-08T15:11:24.274Z,11.20
2022-10-08T15:13:52.636Z,11.20
2022-10-08T15:16:19.324Z,11.10
2022-10-08T15:18:46.011Z,11.10
2022-10-08T15:21:12.606Z,11.00
2022-10-08T15:23:39.217Z,11.00
2022-10-08T15:26:06.952Z,10.90
2022-10-08T15:28:37.103Z,10.70
2022-10-08T15:31:08.777Z,10.70
2022-10-08T15:33:39.433Z,10.60
2022-10-08T15:36:33.737Z,10.60
2022-10-08T15:39:03.455Z,10.50
2022-10-08T15:41:31.794Z,10.40
2022-10-08T15:44:26.881Z,10.40
2022-10-08T15:47:05.543Z,10.50
2022-10-08T15:49:33.587Z,10.80
2022-10-08T15:52:00.242Z,11.00
2022-10-08T15:54:26.933Z,11.20
2022-10-08T15:56:53.513Z,11.60
2022-10-08T15:59:20.314Z,13.00
2022-10-08T16:01:46.909Z,14.60
2022-10-08T16:04:13.756Z,14.90
2022-10-08T16:06:46.955Z,14.70
2022-10-08T16:09:14.355Z,13.80
2022-10-08T16:11:41.032Z,12.60
2022-10-08T16:14:12.449Z,12.70
2022-10-08T16:16:39.377Z,12.40
2022-10-08T16:19:08.075Z,12.00
2022-10-08T16:21:35.030Z,11.90
2022-10-08T16:24:01.787Z,11.60
2022-10-08T16:26:28.955Z,11.10
2022-10-08T16:28:57.221Z,10.90
2022-10-08T16:31:24.858Z,10.70
2022-10-08T16:33:56.080Z,10.60
2022-10-08T16:36:22.799Z,10.30
2022-10-08T16:38:49.410Z,10.20
2022-10-08T16:41:27.141Z,10.00
2022-10-08T16:43:55.070Z,9.80
2022-10-08T16:46:21.676Z,9.60
2022-10-08T16:48:51.920Z,9.50
2022-10-08T16:51:18.873Z,9.30
2022-10-08T16:53:53.268Z,9.10
2022-10-08T16:56:20.568Z,9.00
2022-10-08T16:58:54.655Z,8.80
2022-10-08T17:01:21.414Z,8.70
2022-10-08T17:03:51.191Z,8.60
2022-10-08T17:06:18.291Z,8.50
2022-10-08T17:08:45.182Z,8.30
2022-10-08T17:11:12.741Z,8.20
2022-10-08T17:13:58.110Z,8.10
2022-10-08T17:16:26.129Z,7.90
2022-10-08T17:18:54.040Z,7.80
2022-10-08T17:21:20.731Z,7.70
2022-10-08T17:23:47.417Z,7.70
2022-10-08T17:26:19.067Z,7.60
2022-10-08T17:28:46.850Z,7.50
2022-10-08T17:31:18.580Z,7.30
2022-10-08T17:33:45.310Z,7.30
2022-10-08T17:36:16.927Z,7.10
2022-10-08T17:38:44.093Z,7.10
2022-10-08T17:41:10.739Z,7.00
2022-10-08T17:43:37.320Z,6.90
2022-10-08T17:46:30.865Z,6.80
2022-10-08T17:48:57.597Z,6.70
2022-10-08T17:51:25.848Z,6.60
2022-10-08T17:53:56.350Z,6.60
2022-10-08T17:56:23.125Z,6.60
2022-10-08T17:58:49.963Z,6.40
2022-10-08T18:01:24.570Z,6.40
2022-10-08T18:04:02.432Z,6.40
2022-10-08T18:06:29.443Z,6.30
2022-10-08T18:09:00.498Z,6.20
2022-10-08T18:11:27.950Z,6.20
2022-10-08T18:13:54.604Z,6.10
2022-10-08T18:16:21.957Z,6.00
2022-10-08T18:18:48.742Z,5.80
2022-10-08T18:21:16.562Z,5.90
2022-10-08T18:23:43.270Z,5.90
2022-10-08T18:26:20.583Z,5.80
2022-10-08T18:28:48.944Z,5.80
2022-10-08T18:31:15.776Z,5.80
2022-10-08T18:33:43.365Z,5.70
2022-10-08T18:36:14.809Z,5.60
2022-10-08T18:38:42.028Z,5.40
2022-10-08T18:41:14.472Z,5.40
2022-10-08T18:43:41.230Z,5.40
2022-10-08T18:46:07.932Z,5.40
2022-10-08T18:48:34.786Z,5.50
2022-10-08T18:51:04.546Z,5.40
2022-10-08T18:53:32.882Z,5.30
2022-10-08T18:56:00.034Z,5.20
2022-10-08T18:58:27.154Z,5.10
2022-10-08T19:00:55.289Z,5.10
2022-10-08T19:03:23.286Z,5.10
2022-10-08T19:05:49.954Z,5.10
2022-10-08T19:08:16.562Z,5.00
2022-10-08T19:10:44.136Z,4.90
2022-10-08T19:13:10.899Z,5.00
2022-10-08T19:15:38.050Z,5.20
2022-10-08T19:18:05.306Z,5.00
2022-10-08T19:20:32.873Z,5.00
2022-10-08T19:22:59.595Z,4.90
2022-10-08T19:25:29.981Z,5.00
2022-10-08T19:27:56.613Z,4.90
2022-10-08T19:30:26.640Z,4.80
2022-10-08T19:32:55.090Z,4.80
2022-10-08T19:35:21.704Z,4.70
2022-10-08T19:37:48.397Z,4.50
2022-10-08T19:40:15.037Z,4.50
2022-10-08T19:42:41.627Z,4.40
2022-10-08T19:45:08.629Z,4.60
2022-10-08T19:47:35.858Z,4.40
2022-10-08T19:50:02.811Z,4.40
2022-10-08T19:52:29.435Z,4.40
2022-10-08T19:54:56.036Z,4.40
2022-10-08T19:57:22.650Z,4.30
2022-10-08T19:59:49.251Z,4.30
2022-10-08T20:02:15.893Z,4.30
2022-10-08T20:04:44.749Z,4.10
2022-10-08T20:07:11.328Z,4.20
2022-10-08T20:09:37.943Z,4.20
2022-10-08T20:12:04.559Z,4.10
2022-10-08T20:14:31.351Z,4.10
2022-10-08T20:16:57.973Z,4.20
2022-10-08T20:19:24.585Z,4.10
2022-10-08T20:21:51.302Z,4.10
2022-10-08T20:24:18.329Z,4.00
2022-10-08T20:26:45.016Z,3.90
2022-10-08T20:29:21.523Z,3.90
2022-10-08T20:31:54.659Z,3.90
2022-10-08T20:34:23.730Z,3.60
2022-10-08T20:36:50.574Z,3.70
2022-10-08T20:39:18.166Z,3.80
2022-10-08T20:41:44.844Z,3.70
2022-10-08T20:44:11.468Z,3.60
2022-10-08T20:46:38.383Z,3.50
2022-10-08T20:49:05.257Z,3.60
2022-10-08T20:51:32.081Z,3.60
2022-10-08T20:54:00.954Z,3.60
2022-10-08T20:56:28.212Z,3.40
2022-10-08T20:58:54.885Z,3.40
2022-10-08T21:01:26.228Z,3.60
2022-10-08T21:03:53.029Z,3.60
2022-10-08T21:06:27.692Z,3.50
2022-10-08T21:08:55.241Z,3.40
2022-10-08T21:11:23.510Z,3.50
2022-10-08T21:13:50.602Z,3.40
2022-10-08T21:16:18.679Z,3.30
2022-10-08T21:18:49.178Z,3.30
2022-10-08T21:21:15.961Z,3.40
2022-10-08T21:23:42.593Z,3.50
2022-10-08T21:26:11.307Z,3.10
2022-10-08T21:28:38.217Z,3.10
2022-10-08T21:31:05.199Z,3.10
2022-10-08T21:33:41.198Z,3.00
2022-10-08T21:36:09.356Z,2.80
2022-10-08T21:38:35.939Z,2.90
2022-10-08T21:41:11.212Z,3.00
2022-10-08T21:43:42.350Z,3.00
2022-10-08T21:46:10.343Z,3.00
2022-10-08T21:48:37.112Z,2.90
2022-10-08T21:51:05.987Z,2.80
2022-10-08T21:53:33.443Z,2.70
2022-10-08T21:56:01.807Z,2.70
2022-10-08T21:58:28.705Z,2.80
2022-10-08T22:00:55.438Z,2.70
2022-10-08T22:03:22.106Z,2.70
2022-10-08T22:06:01.946Z,2.60
2022-10-08T22:08:29.398Z,2.60
2022-10-08T22:10:56.218Z,2.50
2022-10-08T22:13:22.875Z,2.50
2022-10-08T22:15:57.244Z,2.50
2022-10-08T22:18:24.488Z,2.50
2022-10-08T22:20:51.474Z,2.60
2022-10-08T22:23:18.201Z,2.60
2022-10-08T22:26:10.327Z,2.40
2022-10-08T22:28:37.078Z,2.30
2022-10-08T22:31:04.769Z,2.10
2022-10-08T22:33:31.375Z,2.30
2022-10-08T22:36:11.143Z,2.30
2022-10-08T22:38:38.857Z,2.00
2022-10-08T22:41:07.233Z,2.20
2022-10-08T22:43:34.836Z,2.10
2022-10-08T22:46:06.063Z,2.10
2022-10-08T22:48:32.834Z,2.20
2022-10-08T22:51:03.322Z,2.10
2022-10-08T22:53:29.931Z,2.20
2022-10-08T22:55:56.566Z,1.80
2022-10-08T22:58:23.182Z,1.90
2022-10-08T23:01:12.218Z,1.90
2022-10-08T23:03:39.014Z,1.90
2022-10-08T23:06:17.343Z,1.90
2022-10-08T23:08:45.035Z,1.90
2022-10-08T23:11:12.309Z,2.00
2022-10-08T23:13:39.088Z,1.90
2022-10-08T23:16:08.171Z,1.80
2022-10-08T23:18:39.227Z,1.80
2022-10-08T23:21:08.639Z,1.90
2022-10-08T23:23:35.433Z,2.00
2022-10-08T23:26:03.294Z,2.00
2022-10-08T23:28:30.276Z,1.60
2022-10-08T23:31:14.320Z,1.50
2022-10-08T23:33:42.147Z,1.70
2022-10-08T23:36:09.739Z,1.60
2022-10-08T23:38:36.527Z,1.20
2022-10-08T23:41:04.409Z,1.30
2022-10-08T23:43:35.393Z,1.30
2022-10-08T23:46:02.517Z,1.50
2022-10-08T23:48:29.196Z,1.40
2022-10-08T23:50:55.826Z,1.50
2022-10-08T23:53:23.325Z,1.40
2022-10-08T23:55:50.021Z,1.30
2022-10-08T23:58:17.880Z,1.40
